Cbeh — BOHM — position and weather

sailwx.info

Track history (hours):
 
Tides and Currents Weather Stations Pressure Air Temp Water Temp Dewpoint Dewpoint Depression Visibility Wind Speed Wind Dir Waves Ship Positions

Cbeh

Last reported at 2018-Apr-18 01:12 UTC. Time now 2018-Apr-20 08:24 UTC.
Position N 23°12' E 117°22'.

Length 222 m; draft 5.4 m.

Type: Wing in ground effect craft. MMSI: 412228000.

Date/timePositionNaut miles runAvg speedWind from/ knotsBaromVisibWave heightAir tempDewpointWater temp
2018-Apr-18 01:12N 23°12' E 117°22'315.9
2018-Apr-18 01:00N 23°14' E 117°24'816.0
2018-Apr-18 00:30N 23°19' E 117°31'816.1
2018-Apr-18 00:01N 23°24' E 117°37'816.4
2018-Apr-17 23:30N 23°30' E 117°44'816.6
2018-Apr-17 23:01N 23°35' E 117°51'916.8
2018-Apr-17 22:30N 23°41' E 117°58'816.9
2018-Apr-17 22:00N 23°47' E 118°04'1717.3
2018-Apr-17 21:00N 23°58' E 118°19'917.3
2018-Apr-17 20:28N 24°04' E 118°26'817.6
2018-Apr-17 20:00N 24°10' E 118°33'917.6
2018-Apr-17 19:30N 24°15' E 118°41'  
2018-Apr-15 14:51N 37°37' E 122°27'617.6
2018-Apr-15 14:30N 37°40' E 122°20'817.2
2018-Apr-15 14:00N 37°42' E 122°09'917.1
2018-Apr-15 13:30N 37°45' E 121°59'816.7
2018-Apr-15 13:00N 37°47' E 121°49'816.8
2018-Apr-15 12:30N 37°49' E 121°39'816.8
2018-Apr-15 12:00N 37°52' E 121°28'816.7
2018-Apr-15 11:30N 37°54' E 121°18'916.9
2018-Apr-15 11:00N 37°56' E 121°08'817.1
2018-Apr-15 10:30N 37°58' E 120°57'917.5
2018-Apr-15 10:00N 38°00' E 120°47'917.6
2018-Apr-15 09:30N 38°02' E 120°36'917.5
2018-Apr-15 09:00N 38°04' E 120°25'917.2
2018-Apr-15 08:31N 38°05' E 120°14'  
Track history (hours):
 
Tides and Currents Weather Stations Pressure Air Temp Water Temp Dewpoint Dewpoint Depression Visibility Wind Speed Wind Dir Waves Ship Positions

Cbeh

Last reported at 2018-Apr-18 01:12 UTC. Time now 2018-Apr-20 08:24 UTC.
Position N 23°12' E 117°22'.

Length 222 m; draft 5.4 m.

Type: Wing in ground effect craft. MMSI: 412228000.

Date/timePositionNaut miles runAvg speedWind from/ knotsBaromVisibWave heightAir tempDewpointWater temp
2018-Apr-18 01:12N 23°12' E 117°22'315.9
2018-Apr-18 01:00N 23°14' E 117°24'816.0
2018-Apr-18 00:30N 23°19' E 117°31'816.1
2018-Apr-18 00:01N 23°24' E 117°37'816.4
2018-Apr-17 23:30N 23°30' E 117°44'816.6
2018-Apr-17 23:01N 23°35' E 117°51'916.8
2018-Apr-17 22:30N 23°41' E 117°58'816.9
2018-Apr-17 22:00N 23°47' E 118°04'1717.3
2018-Apr-17 21:00N 23°58' E 118°19'917.3
2018-Apr-17 20:28N 24°04' E 118°26'817.6
2018-Apr-17 20:00N 24°10' E 118°33'917.6
2018-Apr-17 19:30N 24°15' E 118°41'  
2018-Apr-15 14:51N 37°37' E 122°27'617.6
2018-Apr-15 14:30N 37°40' E 122°20'817.2
2018-Apr-15 14:00N 37°42' E 122°09'917.1
2018-Apr-15 13:30N 37°45' E 121°59'816.7
2018-Apr-15 13:00N 37°47' E 121°49'816.8
2018-Apr-15 12:30N 37°49' E 121°39'816.8
2018-Apr-15 12:00N 37°52' E 121°28'816.7
2018-Apr-15 11:30N 37°54' E 121°18'916.9
2018-Apr-15 11:00N 37°56' E 121°08'817.1
2018-Apr-15 10:30N 37°58' E 120°57'917.5
2018-Apr-15 10:00N 38°00' E 120°47'917.6
2018-Apr-15 09:30N 38°02' E 120°36'917.5
2018-Apr-15 09:00N 38°04' E 120°25'917.2
2018-Apr-15 08:31N 38°05' E 120°14'  

Dump ship's entire track history